createdAt,value
2019-03-27T00:01:45.926Z,91.07
2019-03-27T00:06:50.572Z,91.54
2019-03-27T00:11:55.445Z,91.47
2019-03-27T00:17:00.208Z,91.38
2019-03-27T00:22:04.956Z,90.43
2019-03-27T00:27:09.818Z,90.49
2019-03-27T00:37:25.485Z,93.26
2019-03-27T00:42:30.219Z,93.67
2019-03-27T00:47:34.949Z,93.30
2019-03-27T00:52:39.625Z,92.60
2019-03-27T00:57:44.386Z,91.99
2019-03-27T01:02:48.989Z,91.58
2019-03-27T01:07:53.590Z,91.37
2019-03-27T01:12:58.246Z,91.25
2019-03-27T01:18:02.914Z,91.16
2019-03-27T01:23:07.633Z,90.98
2019-03-27T01:28:12.275Z,90.80
2019-03-27T01:33:16.822Z,90.89
2019-03-27T01:38:21.405Z,91.00
2019-03-27T01:43:25.933Z,91.17
2019-03-27T01:48:30.522Z,91.22
2019-03-27T01:53:35.172Z,91.25
2019-03-27T01:58:39.792Z,91.14
2019-03-27T02:03:44.342Z,91.08
2019-03-27T02:08:48.933Z,91.04
2019-03-27T02:13:53.673Z,91.04
2019-03-27T02:18:59.348Z,91.15
2019-03-27T02:24:04.138Z,90.64
2019-03-27T02:29:08.928Z,89.61
2019-03-27T02:34:13.525Z,88.87
2019-03-27T02:39:18.133Z,89.24
2019-03-27T02:44:22.800Z,89.47
2019-03-27T02:49:27.587Z,89.75
2019-03-27T02:54:32.127Z,90.51
2019-03-27T02:59:36.828Z,90.73
2019-03-27T03:04:41.491Z,90.35
2019-03-27T03:09:46.090Z,89.73
2019-03-27T03:14:50.777Z,90.25
2019-03-27T03:19:55.385Z,90.73
2019-03-27T03:24:59.945Z,90.57
2019-03-27T03:30:05.852Z,91.54
2019-03-27T03:35:10.908Z,92.49
2019-03-27T03:40:16.304Z,92.68
2019-03-27T03:45:21.090Z,92.91
2019-03-27T03:50:42.193Z,93.43
2019-03-27T03:55:46.774Z,93.97
2019-03-27T04:00:52.146Z,94.00
2019-03-27T04:05:56.687Z,93.76
2019-03-27T04:11:01.573Z,93.66
2019-03-27T04:16:06.503Z,93.83
2019-03-27T04:21:11.133Z,94.10
2019-03-27T04:26:15.765Z,94.31
2019-03-27T04:31:20.305Z,94.34
2019-03-27T04:36:25.468Z,94.28
2019-03-27T04:41:29.973Z,94.49
2019-03-27T04:46:34.504Z,94.76
2019-03-27T04:51:39.186Z,94.92
2019-03-27T04:56:43.890Z,94.98
2019-03-27T05:01:48.663Z,95.08
2019-03-27T05:06:53.458Z,95.16
2019-03-27T05:11:58.250Z,95.20
2019-03-27T05:17:03.088Z,95.18
2019-03-27T05:22:07.628Z,95.16
2019-03-27T05:27:12.223Z,95.27
2019-03-27T05:32:16.813Z,95.40
2019-03-27T05:37:21.545Z,95.55
2019-03-27T05:42:26.088Z,95.67
2019-03-27T05:47:30.857Z,95.80
2019-03-27T05:52:35.465Z,95.90
2019-03-27T05:57:40.238Z,95.89
2019-03-27T06:02:44.843Z,95.89
2019-03-27T06:07:49.488Z,95.95
2019-03-27T06:12:54.233Z,96.02
2019-03-27T06:18:12.255Z,95.98
2019-03-27T06:23:05.364Z,95.95
2019-03-27T06:28:10.241Z,95.89
2019-03-27T06:33:14.943Z,95.82
2019-03-27T06:38:19.664Z,95.59
2019-03-27T06:43:24.323Z,95.00
2019-03-27T06:48:28.982Z,94.13
2019-03-27T06:53:36.569Z,92.98
2019-03-27T06:58:53.837Z,91.75
2019-03-27T07:03:48.035Z,90.55
2019-03-27T07:08:52.885Z,89.74
2019-03-27T07:13:57.698Z,88.75
2019-03-27T07:19:02.469Z,87.71
2019-03-27T07:24:07.054Z,86.42
2019-03-27T07:29:11.890Z,86.00
2019-03-27T07:34:16.900Z,87.11
2019-03-27T07:39:21.841Z,87.81
2019-03-27T07:44:26.568Z,87.95
2019-03-27T07:49:31.303Z,87.95
2019-03-27T07:54:35.889Z,88.05
2019-03-27T07:59:40.686Z,88.16
2019-03-27T08:04:47.803Z,87.66
2019-03-27T08:09:52.658Z,87.48
2019-03-27T08:14:57.483Z,86.93
2019-03-27T08:20:02.550Z,86.45
2019-03-27T08:25:08.181Z,85.84
2019-03-27T08:30:13.557Z,85.44
2019-03-27T08:35:18.813Z,86.13
2019-03-27T08:40:23.858Z,84.79
2019-03-27T08:45:28.710Z,84.84
2019-03-27T08:50:33.734Z,84.65
2019-03-27T08:55:38.673Z,81.79
2019-03-27T09:00:48.923Z,75.58
2019-03-27T09:05:53.722Z,69.67
2019-03-27T09:10:58.433Z,66.30
2019-03-27T09:16:03.278Z,66.29
2019-03-27T09:21:08.154Z,64.10
2019-03-27T09:26:13.350Z,64.06
2019-03-27T09:31:18.323Z,61.05
2019-03-27T09:36:22.963Z,59.69
2019-03-27T09:41:27.933Z,59.00
2019-03-27T09:46:32.509Z,58.39
2019-03-27T09:51:37.073Z,58.39
2019-03-27T09:56:41.722Z,57.05
2019-03-27T10:01:46.310Z,58.83
2019-03-27T10:06:51.569Z,59.30
2019-03-27T10:11:57.188Z,58.89
2019-03-27T10:17:02.130Z,59.18
2019-03-27T10:22:07.022Z,55.71
2019-03-27T10:27:11.988Z,56.93
2019-03-27T10:32:17.073Z,56.46
2019-03-27T10:37:21.872Z,56.12
2019-03-27T10:42:26.518Z,57.65
2019-03-27T10:47:31.613Z,60.05
2019-03-27T10:52:36.355Z,58.83
2019-03-27T10:57:41.673Z,58.51
2019-03-27T11:02:46.262Z,59.46
2019-03-27T11:07:51.263Z,56.28
2019-03-27T11:12:58.703Z,58.31
2019-03-27T11:18:03.365Z,60.21
2019-03-27T11:23:08.906Z,59.44
2019-03-27T11:28:13.639Z,62.46
2019-03-27T11:33:18.383Z,59.18
2019-03-27T11:38:23.123Z,57.78
2019-03-27T11:43:28.068Z,60.88
2019-03-27T11:48:32.612Z,57.55
2019-03-27T11:53:37.248Z,56.16
2019-03-27T11:58:41.952Z,55.72
2019-03-27T12:03:47.254Z,54.82
2019-03-27T12:08:51.862Z,55.63
2019-03-27T12:13:56.418Z,53.81
2019-03-27T12:19:01.634Z,52.45
2019-03-27T12:24:06.699Z,53.35
2019-03-27T12:29:11.323Z,51.94
2019-03-27T12:34:15.908Z,53.68
2019-03-27T12:39:20.951Z,51.16
2019-03-27T12:44:26.129Z,52.37
2019-03-27T12:49:30.954Z,50.61
2019-03-27T12:54:35.573Z,54.70
2019-03-27T12:59:43.362Z,54.79
2019-03-27T13:04:48.573Z,53.32
2019-03-27T13:09:53.419Z,53.00
2019-03-27T13:14:58.153Z,51.68
2019-03-27T13:20:03.690Z,53.05
2019-03-27T13:25:10.159Z,55.57
2019-03-27T13:30:18.824Z,55.73
2019-03-27T13:35:23.714Z,65.01
2019-03-27T13:40:28.918Z,66.15
2019-03-27T13:45:35.658Z,65.95
2019-03-27T13:50:40.217Z,64.82
2019-03-27T13:55:45.086Z,66.42
2019-03-27T14:00:50.020Z,58.96
2019-03-27T14:05:54.554Z,58.63
2019-03-27T14:10:59.328Z,56.15
2019-03-27T14:16:04.118Z,58.11
2019-03-27T14:21:08.716Z,61.38
2019-03-27T14:26:13.773Z,61.05
2019-03-27T14:31:18.707Z,60.91
2019-03-27T14:36:23.601Z,58.00
2019-03-27T14:41:28.283Z,58.08
2019-03-27T14:46:32.889Z,58.32
2019-03-27T14:51:38.080Z,55.36
2019-03-27T14:56:42.938Z,55.86
2019-03-27T15:01:47.973Z,54.72
2019-03-27T15:06:52.658Z,57.66
2019-03-27T15:11:57.314Z,54.79
2019-03-27T15:17:02.811Z,58.00
2019-03-27T15:22:21.448Z,56.83
2019-03-27T15:27:15.369Z,58.25
2019-03-27T15:32:20.091Z,57.49
2019-03-27T15:37:27.133Z,56.47
2019-03-27T15:42:31.907Z,60.99
2019-03-27T15:47:36.448Z,58.54
2019-03-27T15:52:41.592Z,58.54
2019-03-27T15:57:46.278Z,56.42
2019-03-27T16:02:51.074Z,57.71
2019-03-27T16:07:56.082Z,59.08
2019-03-27T16:13:00.808Z,58.86
2019-03-27T16:18:05.718Z,61.12
2019-03-27T16:23:10.603Z,62.02
2019-03-27T16:28:15.453Z,60.44
2019-03-27T16:33:22.118Z,60.25
2019-03-27T16:38:26.794Z,59.05
2019-03-27T16:43:31.629Z,58.33
2019-03-27T16:48:36.782Z,59.45
2019-03-27T16:53:41.928Z,63.20
2019-03-27T16:58:49.799Z,64.34
2019-03-27T17:03:54.737Z,66.50
2019-03-27T17:08:59.433Z,68.88
2019-03-27T17:14:04.019Z,70.04
2019-03-27T17:19:08.753Z,71.31
2019-03-27T17:24:13.343Z,71.31
2019-03-27T17:29:20.210Z,73.09
2019-03-27T17:34:25.042Z,73.53
2019-03-27T17:39:29.874Z,73.80
2019-03-27T17:44:34.510Z,76.11
2019-03-27T17:49:39.208Z,76.11
2019-03-27T17:54:43.956Z,77.13
2019-03-27T17:59:53.877Z,76.99
2019-03-27T18:04:58.718Z,77.68
2019-03-27T18:10:05.714Z,79.02
2019-03-27T18:15:10.523Z,79.09
2019-03-27T18:20:15.162Z,78.50
2019-03-27T18:25:20.198Z,79.27
2019-03-27T18:30:29.332Z,80.37
2019-03-27T18:35:34.159Z,80.89
2019-03-27T18:40:39.247Z,80.51
2019-03-27T18:45:44.173Z,80.93
2019-03-27T18:50:49.191Z,81.05
2019-03-27T18:55:54.193Z,81.61
2019-03-27T19:00:58.744Z,83.09
2019-03-27T19:06:03.491Z,83.98
2019-03-27T19:11:08.072Z,84.67
2019-03-27T19:16:13.071Z,86.92
2019-03-27T19:21:18.145Z,87.64
2019-03-27T19:26:23.023Z,88.04
2019-03-27T19:31:27.817Z,87.90
2019-03-27T19:36:32.736Z,87.04
2019-03-27T19:41:37.685Z,86.55
2019-03-27T19:46:45.591Z,87.84
2019-03-27T19:51:52.373Z,88.69
2019-03-27T19:56:59.391Z,88.91
2019-03-27T20:02:04.508Z,89.44
2019-03-27T20:07:09.291Z,89.71
2019-03-27T20:12:14.499Z,90.36
2019-03-27T20:17:19.292Z,91.18
2019-03-27T20:22:24.158Z,91.42
2019-03-27T20:27:28.833Z,91.16
2019-03-27T20:32:34.184Z,90.91
2019-03-27T20:37:38.971Z,90.74
2019-03-27T20:42:44.033Z,91.00
2019-03-27T20:47:48.912Z,91.20
2019-03-27T20:52:53.832Z,91.29
2019-03-27T20:58:01.731Z,91.34
2019-03-27T21:03:06.545Z,91.22
2019-03-27T21:08:11.532Z,91.04
2019-03-27T21:13:16.191Z,90.11
2019-03-27T21:18:23.872Z,88.73
2019-03-27T21:23:28.451Z,89.00
2019-03-27T21:28:35.312Z,90.32
2019-03-27T21:33:43.633Z,92.26
2019-03-27T21:38:48.792Z,92.92
2019-03-27T21:43:53.532Z,92.91
2019-03-27T21:48:58.350Z,93.45
2019-03-27T21:54:03.534Z,94.73
2019-03-27T21:59:08.272Z,95.59
2019-03-27T22:04:14.753Z,96.25
2019-03-27T22:09:19.696Z,96.29
2019-03-27T22:14:25.105Z,95.46
2019-03-27T22:19:29.992Z,94.30
2019-03-27T22:24:34.852Z,92.64
2019-03-27T22:29:39.532Z,93.40
2019-03-27T22:34:44.563Z,94.84
2019-03-27T22:39:49.572Z,95.90
2019-03-27T22:44:54.532Z,95.78
2019-03-27T22:49:59.974Z,95.42
2019-03-27T22:55:05.414Z,95.16
2019-03-27T23:00:10.752Z,94.93
2019-03-27T23:05:15.453Z,94.37
2019-03-27T23:10:20.084Z,93.29
2019-03-27T23:15:25.034Z,93.02
2019-03-27T23:20:29.764Z,93.13
2019-03-27T23:25:34.514Z,93.83
2019-03-27T23:30:39.143Z,94.31
2019-03-27T23:35:44.640Z,94.86
2019-03-27T23:40:49.668Z,95.22
2019-03-27T23:45:54.411Z,95.30
2019-03-27T23:50:59.327Z,95.60
2019-03-27T23:56:15.862Z,95.65
